createdAt,value
2023-02-03T00:00:32.061Z,9.54
2023-02-03T00:03:02.008Z,9.56
2023-02-03T00:05:32.891Z,9.57
2023-02-03T00:08:02.634Z,9.56
2023-02-03T00:10:32.491Z,9.54
2023-02-03T00:13:05.028Z,9.56
2023-02-03T00:15:34.844Z,9.59
2023-02-03T00:18:04.632Z,9.60
2023-02-03T00:20:34.525Z,9.59
2023-02-03T00:23:08.284Z,9.59
2023-02-03T00:25:38.443Z,9.63
2023-02-03T00:28:10.881Z,9.62
2023-02-03T00:30:41.092Z,9.60
2023-02-03T00:33:10.812Z,9.60
2023-02-03T00:35:41.912Z,9.63
2023-02-03T00:38:11.689Z,9.60
2023-02-03T00:40:41.479Z,9.61
2023-02-03T00:43:14.094Z,9.61
2023-02-03T00:45:43.921Z,9.64
2023-02-03T00:48:14.220Z,9.63
2023-02-03T00:50:44.005Z,9.62
2023-02-03T00:53:14.213Z,9.63
2023-02-03T00:55:46.000Z,9.63
2023-02-03T00:58:18.528Z,9.66
2023-02-03T01:00:48.366Z,9.69
2023-02-03T01:03:19.195Z,9.71
2023-02-03T01:05:49.181Z,9.74
2023-02-03T01:08:18.998Z,9.73
2023-02-03T01:10:48.950Z,9.74
2023-02-03T01:13:21.389Z,9.71
2023-02-03T01:15:51.435Z,9.71
2023-02-03T01:18:21.375Z,9.69
2023-02-03T01:20:51.471Z,9.63
2023-02-03T01:23:21.411Z,9.67
2023-02-03T01:25:51.558Z,9.66
2023-02-03T01:28:23.988Z,9.66
2023-02-03T01:30:53.794Z,9.67
2023-02-03T01:33:23.855Z,9.68
2023-02-03T01:35:53.664Z,9.68
2023-02-03T01:38:23.511Z,9.63
2023-02-03T01:40:53.379Z,9.63
2023-02-03T01:43:37.217Z,9.61
2023-02-03T01:46:11.100Z,9.70
2023-02-03T01:48:40.953Z,9.74
2023-02-03T01:51:10.897Z,9.78
2023-02-03T01:53:40.888Z,9.78
2023-02-03T01:56:11.852Z,9.76
2023-02-03T01:58:45.559Z,9.75
2023-02-03T02:01:17.503Z,9.77
2023-02-03T02:03:52.884Z,9.71
2023-02-03T02:06:22.780Z,9.67
2023-02-03T02:08:55.855Z,9.65
2023-02-03T02:11:25.673Z,9.70
2023-02-03T02:14:02.048Z,9.68
2023-02-03T02:16:44.143Z,9.67
2023-02-03T02:19:43.689Z,9.64
2023-02-03T02:22:22.463Z,9.71
2023-02-03T02:25:21.386Z,9.68
2023-02-03T02:28:14.810Z,9.70
2023-02-03T02:31:13.385Z,9.73
2023-02-03T02:33:55.350Z,9.77
2023-02-03T02:36:33.553Z,9.76
2023-02-03T02:39:13.269Z,9.70
2023-02-03T02:41:47.717Z,9.73
2023-02-03T02:44:22.467Z,9.74
2023-02-03T02:46:56.570Z,9.74
2023-02-03T02:49:34.673Z,9.72
2023-02-03T02:52:09.344Z,9.72
2023-02-03T02:54:44.473Z,9.72
2023-02-03T02:57:16.885Z,9.75
2023-02-03T02:59:48.264Z,9.72
2023-02-03T03:02:18.389Z,9.70
2023-02-03T03:04:54.149Z,9.65
2023-02-03T03:07:29.206Z,9.68
2023-02-03T03:10:03.991Z,9.69
2023-02-03T03:12:37.755Z,9.71
2023-02-03T03:15:11.447Z,9.75
2023-02-03T03:17:45.178Z,9.73
2023-02-03T03:20:24.148Z,9.77
2023-02-03T03:23:00.729Z,9.76
2023-02-03T03:25:38.123Z,9.70
2023-02-03T03:28:13.065Z,9.75
2023-02-03T03:30:45.186Z,9.76
2023-02-03T03:33:15.286Z,9.76
2023-02-03T03:35:52.725Z,9.75
2023-02-03T03:38:32.050Z,9.64
2023-02-03T03:41:08.854Z,9.72
2023-02-03T03:43:44.101Z,9.73
2023-02-03T03:46:17.897Z,9.72
2023-02-03T03:48:54.587Z,9.69
2023-02-03T03:51:32.006Z,9.65
2023-02-03T03:54:05.385Z,9.71
2023-02-03T03:56:39.659Z,9.73
2023-02-03T03:59:12.075Z,9.76
2023-02-03T04:01:42.871Z,9.78
2023-02-03T04:04:14.455Z,9.77
2023-02-03T04:06:46.980Z,9.75
2023-02-03T04:09:17.710Z,9.76
2023-02-03T04:12:00.143Z,9.81
2023-02-03T04:14:30.194Z,9.79
2023-02-03T04:17:00.382Z,9.80
2023-02-03T04:19:30.446Z,9.70
2023-02-03T04:22:03.053Z,9.71
2023-02-03T04:24:32.922Z,9.75
2023-02-03T04:27:05.170Z,9.71
2023-02-03T04:29:35.227Z,9.68
2023-02-03T04:32:05.170Z,9.66
2023-02-03T04:34:35.055Z,9.71
2023-02-03T04:37:07.734Z,9.68
2023-02-03T04:39:37.672Z,9.70
2023-02-03T04:42:07.537Z,9.74
2023-02-03T04:44:37.249Z,9.78
2023-02-03T04:47:08.655Z,9.82
2023-02-03T04:49:38.444Z,9.82
2023-02-03T04:52:11.429Z,9.82
2023-02-03T04:54:41.148Z,9.83
2023-02-03T04:57:11.046Z,9.83
2023-02-03T04:59:40.861Z,9.80
2023-02-03T05:02:10.865Z,9.79
2023-02-03T05:04:40.662Z,9.78
2023-02-03T05:07:13.258Z,9.77
2023-02-03T05:09:42.990Z,9.78
2023-02-03T05:12:12.739Z,9.79
2023-02-03T05:14:42.650Z,9.76
2023-02-03T05:17:12.391Z,9.77
2023-02-03T05:19:42.158Z,9.78
2023-02-03T05:22:14.592Z,9.76
2023-02-03T05:24:44.476Z,9.78
2023-02-03T05:27:14.221Z,9.82
2023-02-03T05:29:43.911Z,9.84
2023-02-03T05:32:13.612Z,9.86
2023-02-03T05:34:44.510Z,9.86
2023-02-03T05:37:17.033Z,9.82
2023-02-03T05:39:47.032Z,9.83
2023-02-03T05:42:14.165Z,9.83
2023-02-03T05:44:44.401Z,9.82
2023-02-03T05:47:14.131Z,9.78
2023-02-03T05:49:43.939Z,9.81
2023-02-03T05:52:16.935Z,9.80
2023-02-03T05:54:46.717Z,9.80
2023-02-03T05:57:18.312Z,9.84
2023-02-03T05:59:48.138Z,9.81
2023-02-03T06:02:18.059Z,9.80
2023-02-03T06:04:47.880Z,9.73
2023-02-03T06:07:20.292Z,9.77
2023-02-03T06:09:50.430Z,9.78
2023-02-03T06:12:20.216Z,9.77
2023-02-03T06:14:50.094Z,9.82
2023-02-03T06:17:19.913Z,9.83
2023-02-03T06:19:49.720Z,9.87
2023-02-03T06:22:22.164Z,9.84
2023-02-03T06:24:52.137Z,9.82
2023-02-03T06:27:22.010Z,9.84
2023-02-03T06:29:51.967Z,9.86
2023-02-03T06:32:21.757Z,9.86
2023-02-03T06:34:51.475Z,9.86
2023-02-03T06:37:24.861Z,9.83
2023-02-03T06:39:54.642Z,9.81
2023-02-03T06:42:24.459Z,9.83
2023-02-03T06:44:55.262Z,9.84
2023-02-03T06:47:24.965Z,9.84
2023-02-03T06:49:54.968Z,9.78
2023-02-03T06:52:27.421Z,9.81
2023-02-03T06:54:57.176Z,9.77
2023-02-03T06:57:27.046Z,9.84
2023-02-03T06:59:56.884Z,9.86
2023-02-03T07:02:26.775Z,9.87
2023-02-03T07:04:56.524Z,9.90
2023-02-03T07:07:28.929Z,9.93
2023-02-03T07:09:58.772Z,9.89
2023-02-03T07:12:28.793Z,9.91
2023-02-03T07:14:58.536Z,9.89
2023-02-03T07:17:28.394Z,9.92
2023-02-03T07:19:58.194Z,9.93
2023-02-03T07:22:30.674Z,9.93
2023-02-03T07:25:00.553Z,9.92
2023-02-03T07:27:30.604Z,9.89
2023-02-03T07:30:00.543Z,9.84
2023-02-03T07:32:32.297Z,9.83
2023-02-03T07:35:03.051Z,9.90
2023-02-03T07:37:35.522Z,9.91
2023-02-03T07:40:07.708Z,9.91
2023-02-03T07:42:37.695Z,9.89
2023-02-03T07:45:08.376Z,9.92
2023-02-03T07:47:38.368Z,10.00
2023-02-03T07:50:08.626Z,9.96
2023-02-03T07:52:41.299Z,9.96
2023-02-03T07:55:12.347Z,10.00
2023-02-03T07:57:43.817Z,9.93
2023-02-03T08:00:16.265Z,9.86
2023-02-03T08:02:46.958Z,9.84
2023-02-03T08:05:17.681Z,9.92
2023-02-03T08:07:50.319Z,9.96
2023-02-03T08:10:20.453Z,9.99
2023-02-03T08:12:50.313Z,9.95
2023-02-03T08:15:20.281Z,9.97
2023-02-03T08:17:51.647Z,10.00
2023-02-03T08:20:21.575Z,9.97
2023-02-03T08:22:53.959Z,9.98
2023-02-03T08:25:23.796Z,10.00
2023-02-03T08:27:53.923Z,10.03
2023-02-03T08:30:24.014Z,10.03
2023-02-03T08:32:53.934Z,10.12
2023-02-03T08:35:23.764Z,10.15
2023-02-03T08:37:56.471Z,10.15
2023-02-03T08:40:26.853Z,10.09
2023-02-03T08:42:57.566Z,10.08
2023-02-03T08:45:27.451Z,10.08
2023-02-03T08:47:57.575Z,10.11
2023-02-03T08:50:27.800Z,10.00
2023-02-03T08:53:00.970Z,10.04
2023-02-03T08:55:30.831Z,10.02
2023-02-03T08:58:00.661Z,10.06
2023-02-03T09:00:30.831Z,10.08
2023-02-03T09:03:01.178Z,10.05
2023-02-03T09:05:33.151Z,10.08
2023-02-03T09:08:06.264Z,10.11
2023-02-03T09:10:36.230Z,10.10
2023-02-03T09:13:06.285Z,10.13
2023-02-03T09:15:36.477Z,10.13
2023-02-03T09:18:06.534Z,10.20
2023-02-03T09:20:36.411Z,10.24
2023-02-03T09:23:09.099Z,10.24
2023-02-03T09:25:39.090Z,10.22
2023-02-03T09:28:09.544Z,10.15
2023-02-03T09:30:39.589Z,10.20
2023-02-03T09:33:09.473Z,10.24
2023-02-03T09:35:39.278Z,10.20
2023-02-03T09:38:11.610Z,10.24
2023-02-03T09:40:42.503Z,10.24
2023-02-03T09:43:33.546Z,10.23
2023-02-03T09:46:06.577Z,10.28
2023-02-03T09:48:41.550Z,10.27
2023-02-03T09:51:21.812Z,10.23
2023-02-03T09:53:59.221Z,10.22
2023-02-03T09:56:34.671Z,10.25
2023-02-03T09:59:05.479Z,10.31
2023-02-03T10:01:43.609Z,10.31
2023-02-03T10:04:28.539Z,10.34
2023-02-03T10:07:05.730Z,10.31
2023-02-03T10:09:51.683Z,10.35
2023-02-03T10:13:03.277Z,10.34
2023-02-03T10:16:03.250Z,10.37
2023-02-03T10:18:39.472Z,10.41
2023-02-03T10:21:19.951Z,10.47
2023-02-03T10:23:55.089Z,10.52
2023-02-03T10:26:30.672Z,10.47
2023-02-03T10:29:05.500Z,10.38
2023-02-03T10:31:39.118Z,10.37
2023-02-03T10:34:13.729Z,10.35
2023-02-03T10:36:55.130Z,10.41
2023-02-03T10:39:33.931Z,10.41
2023-02-03T10:42:08.487Z,10.50
2023-02-03T10:44:41.950Z,10.51
2023-02-03T10:47:25.004Z,10.60
2023-02-03T10:49:57.243Z,10.63
2023-02-03T10:52:32.405Z,10.62
2023-02-03T10:55:07.572Z,10.65
2023-02-03T10:57:42.237Z,10.66
2023-02-03T11:00:26.438Z,10.57
2023-02-03T11:03:02.477Z,10.57
2023-02-03T11:05:32.286Z,10.56
2023-02-03T11:08:02.056Z,10.60
2023-02-03T11:10:37.915Z,10.64
2023-02-03T11:13:24.633Z,10.59
2023-02-03T11:16:00.608Z,10.64
2023-02-03T11:18:48.640Z,10.57
2023-02-03T11:21:21.685Z,10.67
2023-02-03T11:23:56.781Z,10.68
2023-02-03T11:26:30.400Z,10.67
2023-02-03T11:29:05.274Z,10.61
2023-02-03T11:31:38.121Z,10.71
2023-02-03T11:34:10.595Z,10.72
2023-02-03T11:36:40.463Z,10.74
2023-02-03T11:39:28.661Z,10.73
2023-02-03T11:41:59.018Z,10.80
2023-02-03T11:44:33.996Z,10.77
2023-02-03T11:47:06.550Z,10.71
2023-02-03T11:49:58.058Z,10.79
2023-02-03T11:52:53.663Z,10.83
2023-02-03T11:55:48.965Z,10.84
2023-02-03T11:59:01.504Z,10.80
2023-02-03T12:01:55.370Z,10.82
2023-02-03T12:04:44.544Z,10.81
2023-02-03T12:07:41.475Z,10.80
2023-02-03T12:10:26.525Z,10.78
2023-02-03T12:13:08.479Z,10.81
2023-02-03T12:15:57.973Z,10.85
2023-02-03T12:18:48.256Z,10.86
2023-02-03T12:21:44.439Z,10.89
2023-02-03T12:24:27.650Z,10.94
2023-02-03T12:27:06.544Z,10.98
2023-02-03T12:29:43.436Z,10.96
2023-02-03T12:32:22.904Z,10.97
2023-02-03T12:34:59.911Z,10.98
2023-02-03T12:37:32.258Z,11.02
2023-02-03T12:40:05.084Z,11.01
2023-02-03T12:42:40.198Z,11.07
2023-02-03T12:45:15.834Z,11.04
2023-02-03T12:47:50.928Z,10.99
2023-02-03T12:50:31.010Z,10.97
2023-02-03T12:53:06.546Z,11.03
2023-02-03T12:55:40.464Z,11.09
2023-02-03T12:58:16.628Z,11.12
2023-02-03T13:00:51.450Z,11.05
2023-02-03T13:03:29.980Z,11.16
2023-02-03T13:06:13.921Z,11.08
2023-02-03T13:08:50.520Z,11.18
2023-02-03T13:11:26.198Z,11.20
2023-02-03T13:13:59.933Z,11.22
2023-02-03T13:16:35.781Z,11.27
2023-02-03T13:19:09.942Z,11.23
2023-02-03T13:21:42.361Z,11.24
2023-02-03T13:24:14.626Z,11.27
2023-02-03T13:27:12.039Z,11.17
2023-02-03T13:30:00.849Z,11.11
2023-02-03T13:32:48.870Z,11.14
2023-02-03T13:35:34.555Z,11.19
2023-02-03T13:38:31.229Z,11.16
2023-02-03T13:41:08.833Z,11.19
2023-02-03T13:43:44.270Z,11.25
2023-02-03T13:46:26.266Z,11.31
2023-02-03T13:48:57.539Z,11.38
2023-02-03T13:51:35.099Z,11.43
2023-02-03T13:54:11.368Z,11.36
2023-02-03T13:56:42.451Z,11.33
2023-02-03T13:59:33.189Z,11.27
2023-02-03T14:02:35.143Z,11.16
2023-02-03T14:05:05.504Z,11.18
2023-02-03T14:07:38.345Z,11.22
2023-02-03T14:10:31.407Z,11.16
2023-02-03T14:13:03.870Z,11.24
2023-02-03T14:15:39.831Z,11.13
2023-02-03T14:18:34.279Z,10.95
2023-02-03T14:21:23.488Z,10.86
2023-02-03T14:24:00.284Z,10.83
2023-02-03T14:26:47.772Z,10.61
2023-02-03T14:29:29.867Z,10.67
2023-02-03T14:32:02.618Z,10.64
2023-02-03T14:34:41.510Z,10.57
2023-02-03T14:37:27.134Z,10.61
2023-02-03T14:40:29.113Z,10.62
2023-02-03T14:43:28.215Z,10.61
2023-02-03T14:46:29.836Z,10.61
2023-02-03T14:49:19.591Z,10.59
2023-02-03T14:52:00.286Z,10.65
2023-02-03T14:54:57.843Z,10.64
2023-02-03T14:57:39.378Z,10.68
2023-02-03T15:00:31.590Z,10.62
2023-02-03T15:03:25.699Z,10.62
2023-02-03T15:05:58.351Z,10.63
2023-02-03T15:08:37.532Z,10.65
2023-02-03T15:11:27.816Z,10.68
2023-02-03T15:13:58.549Z,10.75
2023-02-03T15:16:30.975Z,10.73
2023-02-03T15:19:07.745Z,10.75
2023-02-03T15:21:44.864Z,10.70
2023-02-03T15:24:19.045Z,10.72
2023-02-03T15:26:50.949Z,10.70
2023-02-03T15:29:24.910Z,10.67
2023-02-03T15:32:19.247Z,10.61
2023-02-03T15:34:51.213Z,10.61
2023-02-03T15:37:26.688Z,10.63
2023-02-03T15:40:03.643Z,10.61
2023-02-03T15:42:39.099Z,10.64
2023-02-03T15:45:16.266Z,10.61
2023-02-03T15:47:55.271Z,10.58
2023-02-03T15:50:31.739Z,10.58
2023-02-03T15:53:08.063Z,10.56
2023-02-03T15:55:42.000Z,10.61
2023-02-03T15:58:20.929Z,10.63
2023-02-03T16:00:54.506Z,10.64
2023-02-03T16:03:37.142Z,10.64
2023-02-03T16:06:13.364Z,10.66
2023-02-03T16:08:48.464Z,10.67
2023-02-03T16:11:30.551Z,10.64
2023-02-03T16:14:03.544Z,10.67
2023-02-03T16:16:38.489Z,10.63
2023-02-03T16:19:17.040Z,10.56
2023-02-03T16:21:56.919Z,10.57
2023-02-03T16:24:42.640Z,10.56
2023-02-03T16:27:39.368Z,10.51
2023-02-03T16:30:39.711Z,10.51
2023-02-03T16:33:29.056Z,10.54
2023-02-03T16:36:16.991Z,10.53
2023-02-03T16:39:00.907Z,10.51
2023-02-03T16:41:43.345Z,10.54
2023-02-03T16:44:26.873Z,10.57
2023-02-03T16:47:09.154Z,10.58
2023-02-03T16:49:51.249Z,10.59
2023-02-03T16:52:23.584Z,10.57
2023-02-03T16:54:53.327Z,10.54
2023-02-03T16:57:23.166Z,10.51
2023-02-03T16:59:53.050Z,10.51
2023-02-03T17:02:23.003Z,10.45
2023-02-03T17:04:52.868Z,10.43
2023-02-03T17:07:25.326Z,10.40
2023-02-03T17:09:55.389Z,10.41
2023-02-03T17:12:25.930Z,10.42
2023-02-03T17:14:58.561Z,10.43
2023-02-03T17:17:28.661Z,10.45
2023-02-03T17:19:59.464Z,10.46
2023-02-03T17:22:32.327Z,10.45
2023-02-03T17:25:02.197Z,10.43
2023-02-03T17:27:31.954Z,10.44
2023-02-03T17:30:02.093Z,10.48
2023-02-03T17:32:31.811Z,10.48
2023-02-03T17:35:01.893Z,10.47
2023-02-03T17:37:35.550Z,10.44
2023-02-03T17:53:55.529Z,10.28
2023-02-03T17:56:28.044Z,10.23
2023-02-03T17:58:59.377Z,10.23
2023-02-03T18:01:30.613Z,10.18
2023-02-03T18:04:01.870Z,10.20
2023-02-03T18:06:33.222Z,10.16
2023-02-03T18:09:06.226Z,10.11
2023-02-03T18:11:37.750Z,10.13
2023-02-03T18:14:07.989Z,10.17
2023-02-03T18:16:38.980Z,10.21
2023-02-03T18:19:10.643Z,10.22
2023-02-03T18:21:41.850Z,10.15
2023-02-03T18:24:18.618Z,10.10
2023-02-03T18:26:51.833Z,10.08
2023-02-03T18:29:22.223Z,9.87
2023-02-03T18:31:52.030Z,10.00
2023-02-03T18:34:22.185Z,10.00
2023-02-03T18:36:52.294Z,9.95
2023-02-03T18:39:24.766Z,9.93
2023-02-03T18:41:54.512Z,9.94
2023-02-03T18:44:25.764Z,9.93
2023-02-03T18:46:55.686Z,9.91
2023-02-03T18:49:25.604Z,9.84
2023-02-03T18:51:55.382Z,9.83
2023-02-03T18:54:29.677Z,9.83
2023-02-03T18:57:00.486Z,9.79
2023-02-03T18:59:30.298Z,9.83
2023-02-03T19:02:00.300Z,9.80
2023-02-03T19:04:30.081Z,9.78
2023-02-03T19:06:59.852Z,9.80
2023-02-03T19:09:32.383Z,9.80
2023-02-03T19:12:03.190Z,9.75
2023-02-03T19:14:32.972Z,9.73
2023-02-03T19:17:03.108Z,9.73
2023-02-03T19:19:32.937Z,9.71
2023-02-03T19:22:02.829Z,9.69
2023-02-03T19:24:35.548Z,9.67
2023-02-03T19:27:05.446Z,9.64
2023-02-03T19:29:35.246Z,9.60
2023-02-03T19:32:06.935Z,9.61
2023-02-03T19:34:36.801Z,9.58
2023-02-03T19:37:06.811Z,9.52
2023-02-03T19:39:39.544Z,9.56
2023-02-03T19:42:09.550Z,9.58
2023-02-03T19:44:40.161Z,9.61
2023-02-03T19:47:10.027Z,9.62
2023-02-03T19:49:39.821Z,9.64
2023-02-03T19:52:10.393Z,9.65
2023-02-03T19:54:42.953Z,9.63
2023-02-03T19:57:12.724Z,9.62
2023-02-03T19:59:42.782Z,9.59
2023-02-03T20:02:14.768Z,9.56
2023-02-03T20:04:45.312Z,9.56
2023-02-03T20:07:15.747Z,9.46
2023-02-03T20:09:48.159Z,9.50
2023-02-03T20:12:18.003Z,9.52
2023-02-03T20:14:48.046Z,9.49
2023-02-03T20:17:18.057Z,9.50
2023-02-03T20:19:47.740Z,9.51
2023-02-03T20:22:17.422Z,9.49
2023-02-03T20:24:50.380Z,9.48
2023-02-03T20:27:20.827Z,9.50
2023-02-03T20:29:50.991Z,9.51
2023-02-03T20:32:21.166Z,9.52
2023-02-03T20:34:50.970Z,9.53
2023-02-03T20:37:20.844Z,9.51
2023-02-03T20:39:53.521Z,9.48
2023-02-03T20:42:23.379Z,9.46
2023-02-03T20:44:53.279Z,9.44
2023-02-03T20:47:23.522Z,9.42
2023-02-03T20:49:54.035Z,9.39
2023-02-03T20:52:24.204Z,9.36
2023-02-03T20:54:56.698Z,9.38
2023-02-03T20:57:26.641Z,9.39
2023-02-03T20:59:57.036Z,9.37
2023-02-03T21:02:34.194Z,9.39
2023-02-03T21:05:02.629Z,9.36
2023-02-03T21:07:33.463Z,9.36
2023-02-03T21:10:20.778Z,9.30
2023-02-03T21:12:50.921Z,9.36
2023-02-03T21:15:22.055Z,9.38
2023-02-03T21:17:51.825Z,9.41
2023-02-03T21:20:33.037Z,9.37
2023-02-03T21:23:03.181Z,9.38
2023-02-03T21:25:36.872Z,9.39
2023-02-03T21:28:06.966Z,9.38
2023-02-03T21:30:36.983Z,9.38
2023-02-03T21:33:30.903Z,9.28
2023-02-03T21:36:00.795Z,9.32
2023-02-03T21:38:33.234Z,9.32
2023-02-03T21:41:05.798Z,9.32
2023-02-03T21:43:36.496Z,9.32
2023-02-03T21:46:06.628Z,9.32
2023-02-03T21:48:42.408Z,9.27
2023-02-03T21:51:19.066Z,9.22
2023-02-03T21:53:53.934Z,9.27
2023-02-03T21:56:28.289Z,9.26
2023-02-03T21:59:00.461Z,9.29
2023-02-03T22:01:35.896Z,9.34
2023-02-03T22:04:06.738Z,9.37
2023-02-03T22:06:45.272Z,9.37
2023-02-03T22:09:16.344Z,9.41
2023-02-03T22:11:49.097Z,9.38
2023-02-03T22:14:23.357Z,9.40
2023-02-03T22:16:53.398Z,9.41
2023-02-03T22:19:23.349Z,9.39
2023-02-03T22:21:53.399Z,9.36
2023-02-03T22:24:23.403Z,9.34
2023-02-03T22:27:00.281Z,9.33
2023-02-03T22:29:30.484Z,9.28
2023-02-03T22:32:00.524Z,9.28
2023-02-03T22:34:30.431Z,9.28
2023-02-03T22:37:00.293Z,9.29
2023-02-03T22:39:30.065Z,9.27
2023-02-03T22:42:02.503Z,9.29
2023-02-03T22:44:32.400Z,9.31
2023-02-03T22:47:02.653Z,9.33
2023-02-03T22:49:32.486Z,9.33
2023-02-03T22:52:05.778Z,9.35
2023-02-03T22:54:36.973Z,9.32
2023-02-03T22:57:09.823Z,9.31
2023-02-03T22:59:39.622Z,9.26
2023-02-03T23:02:09.868Z,9.25
2023-02-03T23:04:39.856Z,9.24
2023-02-03T23:07:09.664Z,9.21
2023-02-03T23:09:39.762Z,9.21
2023-02-03T23:12:12.500Z,9.16
2023-02-03T23:14:42.285Z,9.15
2023-02-03T23:17:12.059Z,9.18
2023-02-03T23:19:41.872Z,9.18
2023-02-03T23:22:12.103Z,9.17
2023-02-03T23:24:41.825Z,9.19
2023-02-03T23:27:14.572Z,9.18
2023-02-03T23:29:44.419Z,9.14
2023-02-03T23:32:14.107Z,9.16
2023-02-03T23:34:56.198Z,9.19
2023-02-03T23:37:26.855Z,9.21
2023-02-03T23:39:56.628Z,9.22
2023-02-03T23:42:29.347Z,9.23
2023-02-03T23:44:59.788Z,9.22
2023-02-03T23:47:29.942Z,9.19
2023-02-03T23:49:59.895Z,9.17
2023-02-03T23:52:35.631Z,9.13
2023-02-03T23:55:07.687Z,9.12
2023-02-03T23:57:42.869Z,9.09
